IRA229 OIAW-OIII
Flight info
| Callsign | IRA229 |
|---|---|
| Flight time | 1h 6m |
| Altitude | 35000 |
| Route | EGVAX G667 SAV |
| Aircraft | B38M/M-SDE1FGHILORVWXY/HB1 |
Departure
| Time | 2026-05-07 16:55 |
|---|---|
| Airport | Qasem Soleimani International Airport (OIAW) |
Arrival
| Time | 2026-05-07 18:01 |
|---|---|
| Airport | Mehrabad International Airport (OIII) |
| Time | Latitude | Longitude | Altitude | Speed | Heading |
|---|---|---|---|---|---|
| 2026-05-07 16:34 | 31.34328 | 48.74824 | 74 ft | 0 kts | 274° |
| 2026-05-07 16:47 | 31.34328 | 48.74833 | 72 ft | 4 kts | 260° |
| 2026-05-07 16:48 | 31.34339 | 48.74858 | 69 ft | 4 kts | 240° |
| 2026-05-07 16:48 | 31.34354 | 48.74884 | 71 ft | 4 kts | 238° |
| 2026-05-07 16:48 | 31.34361 | 48.74898 | 76 ft | 1 kts | 248° |
| 2026-05-07 16:51 | 31.34360 | 48.74897 | 76 ft | 1 kts | 248° |
| 2026-05-07 16:51 | 31.34358 | 48.74879 | 73 ft | 3 kts | 275° |
| 2026-05-07 16:51 | 31.34375 | 48.74855 | 73 ft | 5 kts | 323° |
| 2026-05-07 16:52 | 31.34402 | 48.74819 | 75 ft | 7 kts | 304° |
| 2026-05-07 16:52 | 31.34434 | 48.74763 | 74 ft | 9 kts | 303° |
| 2026-05-07 16:52 | 31.34471 | 48.74700 | 69 ft | 10 kts | 310° |
| 2026-05-07 16:52 | 31.34533 | 48.74685 | 74 ft | 11 kts | 27° |
| 2026-05-07 16:53 | 31.34544 | 48.74692 | 73 ft | 0 kts | 33° |
| 2026-05-07 16:53 | 31.34545 | 48.74694 | 73 ft | 1 kts | 33° |
| 2026-05-07 16:53 | 31.34557 | 48.74703 | 77 ft | 3 kts | 35° |
| 2026-05-07 16:54 | 31.34552 | 48.74769 | 75 ft | 23 kts | 106° |
| 2026-05-07 16:54 | 31.34367 | 48.75120 | 67 ft | 83 kts | 124° |
| 2026-05-07 16:54 | 31.33898 | 48.75940 | 71 ft | 157 kts | 123° |
| 2026-05-07 16:54 | 31.33205 | 48.77194 | 250 ft | 208 kts | 122° |
| 2026-05-07 16:55 | 31.32617 | 48.78857 | 951 ft | 227 kts | 99° |
| 2026-05-07 16:55 | 31.32722 | 48.80699 | 1994 ft | 234 kts | 69° |
| 2026-05-07 16:55 | 31.33601 | 48.82380 | 2721 ft | 254 kts | 37° |
| 2026-05-07 16:55 | 31.35054 | 48.83389 | 3897 ft | 245 kts | 30° |
| 2026-05-07 16:56 | 31.36518 | 48.84555 | 4488 ft | 263 kts | 36° |
| 2026-05-07 16:56 | 31.38057 | 48.85827 | 5123 ft | 277 kts | 35° |
| 2026-05-07 16:56 | 31.41381 | 48.88509 | 6492 ft | 301 kts | 33° |
| 2026-05-07 16:57 | 31.43123 | 48.89897 | 7321 ft | 304 kts | 33° |
| 2026-05-07 16:57 | 31.44883 | 48.91294 | 8163 ft | 308 kts | 33° |
| 2026-05-07 16:57 | 31.46671 | 48.92711 | 9032 ft | 312 kts | 32° |
| 2026-05-07 16:57 | 31.48476 | 48.94142 | 9889 ft | 316 kts | 32° |
| 2026-05-07 16:58 | 31.50301 | 48.95590 | 10707 ft | 318 kts | 32° |
| 2026-05-07 16:58 | 31.52146 | 48.97053 | 11438 ft | 326 kts | 33° |
| 2026-05-07 16:58 | 31.54080 | 48.98586 | 11844 ft | 345 kts | 33° |
| 2026-05-07 16:58 | 31.56121 | 49.00206 | 12175 ft | 364 kts | 33° |
| 2026-05-07 16:59 | 31.58279 | 49.01919 | 12457 ft | 384 kts | 33° |
| 2026-05-07 16:59 | 31.60543 | 49.03718 | 12751 ft | 400 kts | 33° |
| 2026-05-07 16:59 | 31.62871 | 49.05569 | 13267 ft | 407 kts | 34° |
| 2026-05-07 16:59 | 31.65226 | 49.07442 | 13961 ft | 410 kts | 34° |
| 2026-05-07 17:00 | 31.67599 | 49.09328 | 14576 ft | 414 kts | 33° |
| 2026-05-07 17:00 | 31.69991 | 49.11233 | 15188 ft | 417 kts | 33° |
| 2026-05-07 17:00 | 31.72444 | 49.13023 | 15768 ft | 419 kts | 23° |
| 2026-05-07 17:00 | 31.75212 | 49.14061 | 16393 ft | 418 kts | 12° |
| 2026-05-07 17:01 | 31.78047 | 49.14920 | 16957 ft | 423 kts | 12° |
| 2026-05-07 17:01 | 31.80908 | 49.15770 | 17576 ft | 425 kts | 12° |
| 2026-05-07 17:01 | 31.83753 | 49.16606 | 18081 ft | 431 kts | 11° |
| 2026-05-07 17:01 | 31.86682 | 49.17461 | 18558 ft | 435 kts | 11° |
| 2026-05-07 17:02 | 31.89629 | 49.18321 | 18987 ft | 440 kts | 11° |
| 2026-05-07 17:02 | 31.92620 | 49.19194 | 19396 ft | 445 kts | 11° |
| 2026-05-07 17:02 | 31.95638 | 49.20077 | 19853 ft | 449 kts | 11° |
| 2026-05-07 17:02 | 31.98687 | 49.20968 | 20268 ft | 455 kts | 11° |
| 2026-05-07 17:03 | 32.01775 | 49.21872 | 20683 ft | 459 kts | 11° |
| 2026-05-07 17:03 | 32.04886 | 49.22783 | 21098 ft | 464 kts | 11° |
| 2026-05-07 17:03 | 32.08038 | 49.23706 | 21469 ft | 470 kts | 10° |
| 2026-05-07 17:03 | 32.11221 | 49.24640 | 21889 ft | 473 kts | 10° |
| 2026-05-07 17:04 | 32.14433 | 49.25581 | 22271 ft | 478 kts | 10° |
| 2026-05-07 17:04 | 32.17684 | 49.26535 | 22669 ft | 482 kts | 10° |
| 2026-05-07 17:04 | 32.20955 | 49.27495 | 23090 ft | 487 kts | 10° |
| 2026-05-07 17:04 | 32.24258 | 49.28465 | 23410 ft | 492 kts | 9° |
| 2026-05-07 17:05 | 32.27589 | 49.29444 | 23779 ft | 494 kts | 10° |
| 2026-05-07 17:05 | 32.30927 | 49.30421 | 24189 ft | 495 kts | 9° |
| 2026-05-07 17:05 | 32.34291 | 49.31413 | 24431 ft | 502 kts | 9° |
| 2026-05-07 17:05 | 32.37692 | 49.32419 | 24732 ft | 505 kts | 9° |
| 2026-05-07 17:06 | 32.41115 | 49.33426 | 25048 ft | 509 kts | 9° |
| 2026-05-07 17:06 | 32.44566 | 49.34445 | 25391 ft | 512 kts | 9° |
| 2026-05-07 17:06 | 32.46853 | 49.35122 | 25691 ft | 513 kts | 9° |
| 2026-05-07 17:06 | 32.50327 | 49.36148 | 26042 ft | 516 kts | 9° |
| 2026-05-07 17:07 | 32.53817 | 49.37180 | 26460 ft | 519 kts | 9° |
| 2026-05-07 17:07 | 32.57328 | 49.38239 | 26838 ft | 522 kts | 8° |
| 2026-05-07 17:07 | 32.60858 | 49.39269 | 27305 ft | 522 kts | 8° |
| 2026-05-07 17:07 | 32.64384 | 49.40313 | 27782 ft | 523 kts | 8° |
| 2026-05-07 17:08 | 32.67918 | 49.41356 | 28206 ft | 524 kts | 7° |
| 2026-05-07 17:08 | 32.71435 | 49.42401 | 28600 ft | 525 kts | 8° |
| 2026-05-07 17:08 | 32.74974 | 49.43450 | 28852 ft | 523 kts | 8° |
| 2026-05-07 17:08 | 32.78491 | 49.44492 | 29357 ft | 520 kts | 8° |
| 2026-05-07 17:09 | 32.82004 | 49.45543 | 29862 ft | 520 kts | 8° |
| 2026-05-07 17:09 | 32.85509 | 49.46585 | 30349 ft | 520 kts | 8° |
| 2026-05-07 17:09 | 32.89025 | 49.47634 | 30722 ft | 520 kts | 7° |
| 2026-05-07 17:09 | 32.92529 | 49.48680 | 31175 ft | 519 kts | 7° |
| 2026-05-07 17:10 | 32.96043 | 49.49725 | 31555 ft | 520 kts | 7° |
| 2026-05-07 17:10 | 32.99498 | 49.50755 | 31952 ft | 519 kts | 7° |
| 2026-05-07 17:10 | 33.03048 | 49.51818 | 32326 ft | 518 kts | 7° |
| 2026-05-07 17:10 | 33.06490 | 49.52851 | 32652 ft | 519 kts | 7° |
| 2026-05-07 17:11 | 33.09980 | 49.53906 | 33159 ft | 515 kts | 7° |
| 2026-05-07 17:11 | 33.13499 | 49.54952 | 33633 ft | 513 kts | 7° |
| 2026-05-07 17:11 | 33.16902 | 49.55970 | 34055 ft | 511 kts | 7° |
| 2026-05-07 17:11 | 33.20352 | 49.57006 | 34383 ft | 511 kts | 7° |
| 2026-05-07 17:12 | 33.23784 | 49.58037 | 34656 ft | 511 kts | 7° |
| 2026-05-07 17:12 | 33.27249 | 49.59080 | 34905 ft | 511 kts | 7° |
| 2026-05-07 17:12 | 33.30696 | 49.60119 | 35163 ft | 511 kts | 7° |
| 2026-05-07 17:12 | 33.34142 | 49.61158 | 35231 ft | 511 kts | 7° |
| 2026-05-07 17:13 | 33.41010 | 49.63230 | 35194 ft | 507 kts | 6° |
| 2026-05-07 17:13 | 33.47873 | 49.65304 | 35175 ft | 511 kts | 7° |
| 2026-05-07 17:14 | 33.54795 | 49.67401 | 35201 ft | 514 kts | 7° |
| 2026-05-07 17:14 | 33.61718 | 49.69500 | 35189 ft | 513 kts | 7° |
| 2026-05-07 17:15 | 33.68634 | 49.71601 | 35205 ft | 513 kts | 8° |
| 2026-05-07 17:15 | 33.75534 | 49.73699 | 35195 ft | 511 kts | 8° |
| 2026-05-07 17:16 | 33.82431 | 49.75801 | 35238 ft | 512 kts | 7° |
| 2026-05-07 17:16 | 33.89316 | 49.77905 | 35182 ft | 509 kts | 7° |
| 2026-05-07 17:17 | 33.96179 | 49.80003 | 35158 ft | 510 kts | 7° |
| 2026-05-07 17:17 | 34.03050 | 49.82107 | 35185 ft | 510 kts | 7° |
| 2026-05-07 17:18 | 34.09938 | 49.84221 | 35162 ft | 510 kts | 7° |
| 2026-05-07 17:18 | 34.16667 | 49.87112 | 35171 ft | 521 kts | 22° |
| 2026-05-07 17:19 | 34.23230 | 49.90914 | 35146 ft | 523 kts | 20° |
| 2026-05-07 17:19 | 34.29752 | 49.94707 | 35142 ft | 524 kts | 20° |
| 2026-05-07 17:20 | 34.36314 | 49.98534 | 35145 ft | 523 kts | 20° |
| 2026-05-07 17:20 | 34.42866 | 50.02362 | 35144 ft | 522 kts | 20° |
| 2026-05-07 17:21 | 34.49398 | 50.06186 | 35129 ft | 521 kts | 20° |
| 2026-05-07 17:21 | 34.55929 | 50.10016 | 35134 ft | 522 kts | 20° |
| 2026-05-07 17:22 | 34.62170 | 50.14555 | 35099 ft | 528 kts | 28° |
| 2026-05-07 17:22 | 34.65411 | 50.16499 | 35095 ft | 513 kts | 12° |
| 2026-05-07 17:22 | 34.68782 | 50.17921 | 35080 ft | 519 kts | 17° |
| 2026-05-07 17:23 | 34.75368 | 50.21559 | 35037 ft | 520 kts | 19° |
| 2026-05-07 17:23 | 34.81920 | 50.25331 | 35083 ft | 523 kts | 20° |
| 2026-05-07 17:24 | 34.88459 | 50.29191 | 35048 ft | 521 kts | 20° |
| 2026-05-07 17:24 | 34.95002 | 50.33067 | 35051 ft | 523 kts | 20° |
| 2026-05-07 17:25 | 35.01466 | 50.37146 | 35032 ft | 528 kts | 32° |
| 2026-05-07 17:25 | 35.04232 | 50.40114 | 35055 ft | 532 kts | 45° |
| 2026-05-07 17:25 | 35.06822 | 50.43355 | 35041 ft | 535 kts | 43° |
| 2026-05-07 17:26 | 35.12018 | 50.49772 | 35041 ft | 535 kts | 43° |
| 2026-05-07 17:26 | 35.17232 | 50.56271 | 35031 ft | 535 kts | 43° |
| 2026-05-07 17:27 | 35.22437 | 50.62773 | 35062 ft | 535 kts | 43° |
| 2026-05-07 17:27 | 35.27653 | 50.69302 | 35027 ft | 538 kts | 43° |
| 2026-05-07 17:28 | 35.32883 | 50.75861 | 35013 ft | 539 kts | 43° |
| 2026-05-07 17:28 | 35.38116 | 50.82438 | 34995 ft | 539 kts | 43° |
| 2026-05-07 17:29 | 35.43145 | 50.89233 | 34982 ft | 540 kts | 56° |
| 2026-05-07 17:29 | 35.44877 | 50.93305 | 34970 ft | 537 kts | 74° |
| 2026-05-07 17:29 | 35.45709 | 50.97723 | 34990 ft | 529 kts | 87° |
| 2026-05-07 17:30 | 35.47055 | 51.06673 | 34979 ft | 535 kts | 84° |
| 2026-05-07 17:30 | 35.48445 | 51.15641 | 34962 ft | 535 kts | 84° |
| 2026-05-07 17:31 | 35.49824 | 51.24607 | 34964 ft | 535 kts | 84° |
| 2026-05-07 17:31 | 35.51200 | 51.33570 | 35022 ft | 535 kts | 82° |
| 2026-05-07 17:32 | 35.52311 | 51.37947 | 34989 ft | 541 kts | 66° |
| 2026-05-07 17:32 | 35.54282 | 51.41876 | 34999 ft | 541 kts | 47° |
| 2026-05-07 17:32 | 35.56984 | 51.45039 | 35003 ft | 533 kts | 30° |
| 2026-05-07 17:32 | 35.60173 | 51.47216 | 35026 ft | 520 kts | 13° |
| 2026-05-07 17:33 | 35.63601 | 51.48361 | 35015 ft | 501 kts | 357° |
| 2026-05-07 17:33 | 35.66980 | 51.48371 | 35011 ft | 471 kts | 337° |
| 2026-05-07 17:33 | 35.69892 | 51.47105 | 35012 ft | 433 kts | 315° |
| 2026-05-07 17:33 | 35.72029 | 51.44766 | 35011 ft | 395 kts | 292° |
| 2026-05-07 17:34 | 35.73079 | 51.41821 | 35040 ft | 364 kts | 270° |
| 2026-05-07 17:34 | 35.72995 | 51.38823 | 35033 ft | 347 kts | 253° |
| 2026-05-07 17:34 | 35.72076 | 51.32922 | 34992 ft | 352 kts | 255° |
| 2026-05-07 17:35 | 35.71538 | 51.26863 | 35002 ft | 354 kts | 251° |
| 2026-05-07 17:35 | 35.70536 | 51.24161 | 35019 ft | 346 kts | 237° |
| 2026-05-07 17:35 | 35.69385 | 51.21550 | 34990 ft | 351 kts | 249° |
| 2026-05-07 17:36 | 35.67492 | 51.16125 | 34966 ft | 347 kts | 226° |
| 2026-05-07 17:36 | 35.65431 | 51.14540 | 35009 ft | 361 kts | 205° |
| 2026-05-07 17:36 | 35.62866 | 51.14151 | 35010 ft | 389 kts | 185° |
| 2026-05-07 17:37 | 35.60163 | 51.15018 | 34999 ft | 416 kts | 168° |
| 2026-05-07 17:37 | 35.57551 | 51.16724 | 35001 ft | 437 kts | 158° |
| 2026-05-07 17:37 | 35.55211 | 51.19256 | 34931 ft | 464 kts | 139° |
| 2026-05-07 17:37 | 35.53571 | 51.22794 | 34954 ft | 493 kts | 118° |
| 2026-05-07 17:38 | 35.52884 | 51.27016 | 34982 ft | 515 kts | 101° |
| 2026-05-07 17:38 | 35.52549 | 51.31388 | 34981 ft | 513 kts | 109° |
| 2026-05-07 17:38 | 35.50961 | 51.39840 | 34930 ft | 500 kts | 122° |
| 2026-05-07 17:39 | 35.49360 | 51.43473 | 34994 ft | 471 kts | 139° |
| 2026-05-07 17:39 | 35.47142 | 51.46262 | 35014 ft | 445 kts | 156° |
| 2026-05-07 17:39 | 35.44525 | 51.48026 | 34970 ft | 416 kts | 174° |
| 2026-05-07 17:39 | 35.41783 | 51.48652 | 34974 ft | 389 kts | 191° |
| 2026-05-07 17:40 | 35.39198 | 51.48175 | 34973 ft | 368 kts | 208° |
| 2026-05-07 17:40 | 35.37015 | 51.46711 | 34971 ft | 354 kts | 225° |
| 2026-05-07 17:40 | 35.35445 | 51.44440 | 34972 ft | 350 kts | 241° |
| 2026-05-07 17:40 | 35.34653 | 51.41664 | 34967 ft | 355 kts | 258° |
| 2026-05-07 17:41 | 35.34745 | 51.38602 | 34965 ft | 371 kts | 276° |
| 2026-05-07 17:41 | 35.35617 | 51.35563 | 34982 ft | 380 kts | 279° |
| 2026-05-07 17:41 | 35.36221 | 51.32472 | 34967 ft | 368 kts | 269° |
| 2026-05-07 17:41 | 35.36148 | 51.29406 | 34828 ft | 355 kts | 253° |
| 2026-05-07 17:42 | 35.35273 | 51.26686 | 34370 ft | 336 kts | 236° |
| 2026-05-07 17:42 | 35.33699 | 51.24650 | 33904 ft | 329 kts | 218° |
| 2026-05-07 17:42 | 35.31658 | 51.23428 | 33386 ft | 328 kts | 207° |
| 2026-05-07 17:42 | 35.29485 | 51.22493 | 32865 ft | 332 kts | 207° |
| 2026-05-07 17:43 | 35.27299 | 51.21569 | 32342 ft | 334 kts | 207° |
| 2026-05-07 17:43 | 35.25099 | 51.20632 | 31825 ft | 336 kts | 207° |
| 2026-05-07 17:43 | 35.22963 | 51.19508 | 31261 ft | 328 kts | 219° |
| 2026-05-07 17:43 | 35.21405 | 51.17595 | 30672 ft | 314 kts | 236° |
| 2026-05-07 17:44 | 35.20230 | 51.15380 | 30128 ft | 307 kts | 239° |
| 2026-05-07 17:44 | 35.19327 | 51.13036 | 29471 ft | 304 kts | 249° |
| 2026-05-07 17:44 | 35.18859 | 51.10491 | 28817 ft | 312 kts | 259° |
| 2026-05-07 17:44 | 35.18841 | 51.07803 | 28150 ft | 323 kts | 269° |
| 2026-05-07 17:45 | 35.19318 | 51.05067 | 27510 ft | 335 kts | 281° |
| 2026-05-07 17:45 | 35.20325 | 51.02460 | 26837 ft | 344 kts | 293° |
| 2026-05-07 17:45 | 35.21846 | 51.00147 | 26147 ft | 356 kts | 307° |
| 2026-05-07 17:45 | 35.23848 | 50.98284 | 25438 ft | 370 kts | 321° |
| 2026-05-07 17:46 | 35.26263 | 50.97045 | 24726 ft | 385 kts | 336° |
| 2026-05-07 17:46 | 35.28846 | 50.96167 | 24019 ft | 385 kts | 335° |
| 2026-05-07 17:46 | 35.31421 | 50.95240 | 23256 ft | 386 kts | 336° |
| 2026-05-07 17:46 | 35.33992 | 50.94310 | 22431 ft | 386 kts | 336° |
| 2026-05-07 17:47 | 35.36574 | 50.93406 | 21651 ft | 388 kts | 341° |
| 2026-05-07 17:47 | 35.39298 | 50.93179 | 20842 ft | 401 kts | 1° |
| 2026-05-07 17:47 | 35.42010 | 50.94122 | 20045 ft | 412 kts | 23° |
| 2026-05-07 17:47 | 35.44331 | 50.96192 | 19251 ft | 417 kts | 46° |
| 2026-05-07 17:48 | 35.45915 | 50.99142 | 18462 ft | 417 kts | 70° |
| 2026-05-07 17:48 | 35.46527 | 51.02574 | 17668 ft | 410 kts | 85° |
| 2026-05-07 17:48 | 35.46976 | 51.06011 | 16968 ft | 406 kts | 81° |
| 2026-05-07 17:48 | 35.47488 | 51.09396 | 16278 ft | 401 kts | 81° |
| 2026-05-07 17:49 | 35.47998 | 51.12728 | 15607 ft | 397 kts | 81° |
| 2026-05-07 17:49 | 35.48508 | 51.16047 | 14944 ft | 392 kts | 81° |
| 2026-05-07 17:49 | 35.49012 | 51.19319 | 14301 ft | 388 kts | 81° |
| 2026-05-07 17:49 | 35.49509 | 51.22558 | 13671 ft | 384 kts | 81° |
| 2026-05-07 17:50 | 35.49994 | 51.25715 | 13078 ft | 378 kts | 81° |
| 2026-05-07 17:50 | 35.50478 | 51.28879 | 12544 ft | 370 kts | 81° |
| 2026-05-07 17:50 | 35.50949 | 51.31964 | 12004 ft | 363 kts | 81° |
| 2026-05-07 17:50 | 35.51262 | 51.34958 | 11519 ft | 353 kts | 95° |
| 2026-05-07 17:51 | 35.50698 | 51.37831 | 11086 ft | 335 kts | 121° |
| 2026-05-07 17:51 | 35.49422 | 51.40105 | 10832 ft | 315 kts | 133° |
| 2026-05-07 17:51 | 35.48122 | 51.42167 | 10584 ft | 303 kts | 132° |
| 2026-05-07 17:51 | 35.46825 | 51.44211 | 10332 ft | 297 kts | 132° |
| 2026-05-07 17:52 | 35.45552 | 51.46203 | 10089 ft | 295 kts | 132° |
| 2026-05-07 17:52 | 35.44287 | 51.48175 | 9839 ft | 294 kts | 133° |
| 2026-05-07 17:52 | 35.43025 | 51.50145 | 9567 ft | 294 kts | 131° |
| 2026-05-07 17:52 | 35.42157 | 51.52378 | 9278 ft | 299 kts | 102° |
| 2026-05-07 17:53 | 35.42315 | 51.54910 | 9007 ft | 303 kts | 69° |
| 2026-05-07 17:53 | 35.43473 | 51.57045 | 8768 ft | 303 kts | 41° |
| 2026-05-07 17:53 | 35.45211 | 51.58514 | 8544 ft | 298 kts | 19° |
| 2026-05-07 17:53 | 35.47176 | 51.59155 | 8353 ft | 291 kts | 6° |
| 2026-05-07 17:54 | 35.49140 | 51.59627 | 8165 ft | 290 kts | 7° |
| 2026-05-07 17:54 | 35.51097 | 51.60121 | 7963 ft | 285 kts | 7° |
| 2026-05-07 17:54 | 35.53029 | 51.60617 | 7780 ft | 284 kts | 7° |
| 2026-05-07 17:54 | 35.54950 | 51.60948 | 7559 ft | 270 kts | 352° |
| 2026-05-07 17:55 | 35.56694 | 51.60445 | 7399 ft | 248 kts | 329° |
| 2026-05-07 17:55 | 35.58068 | 51.59302 | 7188 ft | 231 kts | 316° |
| 2026-05-07 17:55 | 35.59329 | 51.58149 | 6972 ft | 223 kts | 330° |
| 2026-05-07 17:55 | 35.60669 | 51.57294 | 6817 ft | 208 kts | 319° |
| 2026-05-07 17:56 | 35.61569 | 51.56057 | 6709 ft | 183 kts | 296° |
| 2026-05-07 17:56 | 35.61963 | 51.54686 | 6600 ft | 158 kts | 280° |
| 2026-05-07 17:56 | 35.62181 | 51.53405 | 6575 ft | 153 kts | 280° |
| 2026-05-07 17:56 | 35.62560 | 51.52180 | 6532 ft | 155 kts | 295° |
| 2026-05-07 17:57 | 35.62885 | 51.51379 | 6522 ft | 154 kts | 292° |
| 2026-05-07 17:57 | 35.63303 | 51.50170 | 6513 ft | 154 kts | 289° |
| 2026-05-07 17:57 | 35.63679 | 51.48942 | 6490 ft | 154 kts | 287° |
| 2026-05-07 17:57 | 35.64155 | 51.47320 | 6223 ft | 151 kts | 288° |
| 2026-05-07 17:58 | 35.64395 | 51.46505 | 6115 ft | 148 kts | 288° |
| 2026-05-07 17:58 | 35.64736 | 51.45337 | 5917 ft | 143 kts | 288° |
| 2026-05-07 17:58 | 35.65065 | 51.44215 | 5730 ft | 141 kts | 288° |
| 2026-05-07 17:58 | 35.65400 | 51.43069 | 5538 ft | 140 kts | 288° |
| 2026-05-07 17:59 | 35.65728 | 51.41949 | 5337 ft | 138 kts | 289° |
| 2026-05-07 17:59 | 35.66048 | 51.40857 | 5155 ft | 137 kts | 288° |
| 2026-05-07 17:59 | 35.66372 | 51.39751 | 4962 ft | 134 kts | 288° |
| 2026-05-07 17:59 | 35.66687 | 51.38674 | 4787 ft | 134 kts | 289° |
| 2026-05-07 18:00 | 35.67001 | 51.37600 | 4586 ft | 137 kts | 289° |
| 2026-05-07 18:00 | 35.67331 | 51.36471 | 4402 ft | 140 kts | 288° |
| 2026-05-07 18:00 | 35.67662 | 51.35341 | 4215 ft | 140 kts | 288° |
| 2026-05-07 18:00 | 35.67986 | 51.34227 | 4004 ft | 140 kts | 287° |
| 2026-05-07 18:01 | 35.68313 | 51.33104 | 3825 ft | 132 kts | 286° |
| 2026-05-07 18:01 | 35.68565 | 51.32183 | 3845 ft | 95 kts | 290° |
| 2026-05-07 18:01 | 35.68727 | 51.31634 | 3871 ft | 39 kts | 290° |
| 2026-05-07 18:01 | 35.68850 | 51.31455 | 3877 ft | 21 kts | 3° |
| 2026-05-07 18:02 | 35.69000 | 51.31480 | 3892 ft | 6 kts | 5° |
| 2026-05-07 18:02 | 35.69052 | 51.31486 | 3898 ft | 8 kts | 5° |
| 2026-05-07 18:02 | 35.69106 | 51.31490 | 3902 ft | 7 kts | 3° |
| 2026-05-07 18:03 | 35.69204 | 51.31498 | 3909 ft | 20 kts | 3° |
| 2026-05-07 18:03 | 35.69301 | 51.31556 | 3916 ft | 12 kts | 90° |
| 2026-05-07 18:03 | 35.69268 | 51.31700 | 3912 ft | 24 kts | 102° |
| 2026-05-07 18:03 | 35.69197 | 51.31826 | 3903 ft | 14 kts | 184° |
| 2026-05-07 18:04 | 35.69166 | 51.31803 | 3903 ft | 7 kts | 210° |
| 2026-05-07 18:04 | 35.69154 | 51.31800 | 3902 ft | 0 kts | 186° |